Time,TemperatureF,DewpointF,PressureIn,WindDirection,WindDirectionDegrees,WindSpeedMPH,WindSpeedGustMPH,Humidity,HourlyPrecipIn,Conditions,Clouds,dailyrainin,SolarRadiationWatts/m^2,SoftwareType,DateUTC
2013-03-17 00:01:00,38.0,35.0,-100.00,SSW,199,1.0,5.0,89,0.00,,,0.00,1.000000,,2013-03-17 06:01:00,
2013-03-17 00:32:00,38.0,35.0,-100.00,SSW,199,1.0,5.0,89,0.00,,,0.00,1.000000,,2013-03-17 06:32:00,
2013-03-17 00:42:00,38.0,35.0,-100.00,SSW,199,1.0,5.0,89,0.00,,,0.00,1.000000,,2013-03-17 06:42:00,
2013-03-17 00:52:00,38.0,35.0,-100.00,SSW,199,1.0,5.0,89,0.00,,,0.00,1.000000,,2013-03-17 06:52:00,
2013-03-17 01:01:00,37.0,35.0,-100.00,SSW,205,1.0,4.0,91,0.00,,,-99.99,1.000000,,2013-03-17 07:01:00,
2013-03-17 01:22:00,37.0,35.0,-100.00,SSW,205,1.0,4.0,91,0.00,,,-99.99,1.000000,,2013-03-17 07:22:00,
2013-03-17 01:32:00,37.0,35.0,-100.00,SSW,205,1.0,4.0,91,0.00,,,-99.99,1.000000,,2013-03-17 07:32:00,
2013-03-17 01:42:00,37.0,35.0,-100.00,SSW,205,1.0,4.0,91,0.00,,,-99.99,1.000000,,2013-03-17 07:42:00,
2013-03-17 01:52:00,37.0,35.0,-100.00,SSW,205,1.0,4.0,91,0.00,,,-99.99,1.000000,,2013-03-17 07:52:00,
2013-03-17 02:01:00,35.0,31.0,-100.00,SW,224,1.0,7.0,86,0.00,,,0.00,1.000000,,2013-03-17 08:01:00,
2013-03-17 02:33:00,35.0,31.0,-100.00,SW,224,1.0,7.0,86,0.00,,,0.00,1.000000,,2013-03-17 08:33:00,
2013-03-17 02:42:00,35.0,31.0,-100.00,SW,224,1.0,7.0,86,0.00,,,0.00,1.000000,,2013-03-17 08:42:00,
2013-03-17 02:52:00,35.0,31.0,-100.00,SW,224,1.0,7.0,86,0.00,,,0.00,1.000000,,2013-03-17 08:52:00,
2013-03-17 03:01:00,34.0,31.0,-100.00,SSW,205,2.0,4.0,89,0.00,,,0.00,1.000000,,2013-03-17 09:01:00,
2013-03-17 03:22:00,34.0,31.0,-100.00,SSW,205,2.0,4.0,89,0.00,,,0.00,1.000000,,2013-03-17 09:22:00,
2013-03-17 03:32:00,34.0,31.0,-100.00,SSW,205,2.0,4.0,89,0.00,,,0.00,1.000000,,2013-03-17 09:32:00,
2013-03-17 03:43:00,34.0,31.0,-100.00,SSW,205,2.0,4.0,89,0.00,,,0.00,1.000000,,2013-03-17 09:43:00,
2013-03-17 03:53:00,34.0,31.0,-100.00,SSW,205,2.0,4.0,89,0.00,,,0.00,1.000000,,2013-03-17 09:53:00,
2013-03-17 04:01:00,33.0,28.0,-100.00,ENE,70,6.0,12.0,82,0.00,,,0.00,1.000000,,2013-03-17 10:01:00,
2013-03-17 04:33:00,33.0,28.0,-100.00,ENE,70,6.0,12.0,82,0.00,,,0.00,1.000000,,2013-03-17 10:33:00,
2013-03-17 04:42:00,33.0,28.0,-100.00,ENE,70,6.0,12.0,82,0.00,,,0.00,1.000000,,2013-03-17 10:42:00,
2013-03-17 04:52:00,33.0,28.0,-100.00,ENE,70,6.0,12.0,82,0.00,,,0.00,1.000000,,2013-03-17 10:52:00,
2013-03-17 05:01:00,32.0,20.0,-100.00,SSE,166,4.0,15.0,60,0.00,,,0.00,1.000000,,2013-03-17 11:01:00,
2013-03-17 05:22:00,32.0,20.0,-100.00,SSE,166,4.0,15.0,60,0.00,,,0.00,1.000000,,2013-03-17 11:22:00,
2013-03-17 05:32:00,32.0,20.0,-100.00,SSE,166,4.0,15.0,60,0.00,,,0.00,1.000000,,2013-03-17 11:32:00,
2013-03-17 05:42:00,32.0,20.0,-100.00,SSE,166,4.0,15.0,60,0.00,,,0.00,1.000000,,2013-03-17 11:42:00,
2013-03-17 05:52:00,32.0,20.0,-100.00,SSE,166,4.0,15.0,60,0.00,,,0.00,1.000000,,2013-03-17 11:52:00,
2013-03-17 06:01:00,28.0,25.0,-100.00,NNW,335,2.0,6.0,90,0.00,,,0.00,1.000000,,2013-03-17 12:01:00,
2013-03-17 06:22:00,28.0,25.0,-100.00,NNW,335,2.0,6.0,90,0.00,,,0.00,1.000000,,2013-03-17 12:22:00,
2013-03-17 06:33:00,28.0,25.0,-100.00,NNW,335,2.0,6.0,90,0.00,,,0.00,1.000000,,2013-03-17 12:33:00,
2013-03-17 06:43:00,28.0,25.0,-100.00,NNW,335,2.0,6.0,90,0.00,,,0.00,1.000000,,2013-03-17 12:43:00,
2013-03-17 06:52:00,28.0,25.0,-100.00,NNW,335,2.0,6.0,90,0.00,,,0.00,1.000000,,2013-03-17 12:52:00,
2013-03-17 07:01:00,27.0,23.0,-100.00,West,276,1.0,9.0,86,0.00,,,-99.99,1.000000,,2013-03-17 13:01:00,
2013-03-17 07:32:00,27.0,23.0,-100.00,West,276,1.0,9.0,86,0.00,,,-99.99,1.000000,,2013-03-17 13:32:00,
2013-03-17 07:43:00,27.0,23.0,-100.00,West,276,1.0,9.0,86,0.00,,,-99.99,1.000000,,2013-03-17 13:43:00,
2013-03-17 07:52:00,27.0,23.0,-100.00,West,276,1.0,9.0,86,0.00,,,-99.99,1.000000,,2013-03-17 13:52:00,
2013-03-17 08:01:00,27.0,22.0,-100.00,East,96,2.0,7.0,82,0.00,,,-99.99,2.000000,,2013-03-17 14:01:00,
2013-03-17 08:22:00,27.0,22.0,-100.00,East,96,2.0,7.0,82,0.00,,,-99.99,2.000000,,2013-03-17 14:22:00,
2013-03-17 08:33:00,27.0,22.0,-100.00,East,96,2.0,7.0,82,0.00,,,-99.99,2.000000,,2013-03-17 14:33:00,
2013-03-17 08:42:00,27.0,22.0,-100.00,East,96,2.0,7.0,82,0.00,,,-99.99,2.000000,,2013-03-17 14:42:00,
2013-03-17 08:52:00,27.0,22.0,-100.00,East,96,2.0,7.0,82,0.00,,,-99.99,2.000000,,2013-03-17 14:52:00,
2013-03-17 09:01:00,31.0,24.0,-100.00,ESE,109,3.0,7.0,75,0.00,,,0.00,24.000000,,2013-03-17 15:01:00,
2013-03-17 09:33:00,31.0,24.0,-100.00,ESE,109,3.0,7.0,75,0.00,,,0.00,24.000000,,2013-03-17 15:33:00,
2013-03-17 09:43:00,31.0,24.0,-100.00,ESE,109,3.0,7.0,75,0.00,,,0.00,24.000000,,2013-03-17 15:43:00,
2013-03-17 09:53:00,31.0,24.0,-100.00,ESE,109,3.0,7.0,75,0.00,,,0.00,24.000000,,2013-03-17 15:53:00,
2013-03-17 10:01:00,31.0,20.0,-100.00,NW,312,3.0,10.0,63,0.00,,,0.00,24.000000,,2013-03-17 16:01:00,
2013-03-17 10:23:00,31.0,20.0,-100.00,NW,312,3.0,10.0,63,0.00,,,0.00,24.000000,,2013-03-17 16:23:00,
2013-03-17 10:33:00,31.0,20.0,-100.00,NW,312,3.0,10.0,63,0.00,,,0.00,24.000000,,2013-03-17 16:33:00,
2013-03-17 10:43:00,31.0,20.0,-100.00,NW,312,3.0,10.0,63,0.00,,,0.00,24.000000,,2013-03-17 16:43:00,
2013-03-17 10:52:00,31.0,20.0,-100.00,NW,312,3.0,10.0,63,0.00,,,0.00,24.000000,,2013-03-17 16:52:00,
2013-03-17 11:01:00,36.0,24.0,-100.00,East,99,3.0,11.0,61,0.01,,,0.01,81.000000,,2013-03-17 17:01:00,
2013-03-17 11:33:00,36.0,24.0,-100.00,East,99,3.0,11.0,61,0.01,,,0.01,81.000000,,2013-03-17 17:33:00,
2013-03-17 11:42:00,36.0,24.0,-100.00,East,99,3.0,11.0,61,0.01,,,0.01,81.000000,,2013-03-17 17:42:00,
2013-03-17 11:53:00,36.0,24.0,-100.00,East,99,3.0,11.0,61,0.01,,,0.01,81.000000,,2013-03-17 17:53:00,
2013-03-17 12:01:00,35.0,22.0,-100.00,ENE,58,4.0,21.0,59,0.04,,,0.05,246.000000,,2013-03-17 18:01:00,
2013-03-17 12:22:00,35.0,22.0,-100.00,ENE,58,4.0,21.0,59,0.04,,,0.05,246.000000,,2013-03-17 18:22:00,
2013-03-17 12:32:00,35.0,22.0,-100.00,ENE,58,4.0,21.0,59,0.04,,,0.05,246.000000,,2013-03-17 18:32:00,
2013-03-17 12:42:00,35.0,22.0,-100.00,ENE,58,4.0,21.0,59,0.04,,,0.05,246.000000,,2013-03-17 18:42:00,
2013-03-17 12:52:00,35.0,22.0,-100.00,ENE,58,4.0,21.0,59,0.04,,,0.05,246.000000,,2013-03-17 18:52:00,
2013-03-17 13:01:00,37.0,20.0,-100.00,WSW,254,4.0,19.0,50,0.00,,,0.05,299.000000,,2013-03-17 19:01:00,
2013-03-17 13:23:00,37.0,20.0,-100.00,WSW,254,4.0,19.0,50,0.00,,,0.05,299.000000,,2013-03-17 19:23:00,
2013-03-17 13:33:00,37.0,20.0,-100.00,WSW,254,4.0,19.0,50,0.00,,,0.05,299.000000,,2013-03-17 19:33:00,
2013-03-17 13:42:00,37.0,20.0,-100.00,WSW,254,4.0,19.0,50,0.00,,,0.05,299.000000,,2013-03-17 19:42:00,
2013-03-17 13:53:00,37.0,20.0,-100.00,WSW,254,4.0,19.0,50,0.00,,,0.05,299.000000,,2013-03-17 19:53:00,
2013-03-17 14:01:00,37.0,19.0,-100.00,ENE,77,4.0,12.0,48,0.00,,,0.05,294.000000,,2013-03-17 20:01:00,
2013-03-17 14:33:00,37.0,19.0,-100.00,ENE,77,4.0,12.0,48,0.00,,,0.05,294.000000,,2013-03-17 20:33:00,
2013-03-17 14:42:00,37.0,19.0,-100.00,ENE,77,4.0,12.0,48,0.00,,,0.05,294.000000,,2013-03-17 20:42:00,
2013-03-17 14:52:00,37.0,19.0,-100.00,ENE,77,4.0,12.0,48,0.00,,,0.05,294.000000,,2013-03-17 20:52:00,
2013-03-17 15:01:00,38.0,20.0,-100.00,SSW,192,6.0,12.0,47,0.00,,,0.05,392.000000,,2013-03-17 21:01:00,
2013-03-17 15:33:00,38.0,20.0,-100.00,SSW,192,6.0,12.0,47,0.00,,,0.05,392.000000,,2013-03-17 21:33:00,
2013-03-17 15:43:00,38.0,20.0,-100.00,SSW,192,6.0,12.0,47,0.00,,,0.05,392.000000,,2013-03-17 21:43:00,
2013-03-17 15:52:00,38.0,20.0,-100.00,SSW,192,6.0,12.0,47,0.00,,,0.05,392.000000,,2013-03-17 21:52:00,
2013-03-17 16:01:00,39.0,18.0,-100.00,NNE,17,6.0,16.0,42,0.00,,,0.05,414.000000,,2013-03-17 22:01:00,
2013-03-17 16:33:00,39.0,18.0,-100.00,NNE,17,6.0,16.0,42,0.00,,,0.05,414.000000,,2013-03-17 22:33:00,
2013-03-17 16:42:00,39.0,18.0,-100.00,NNE,17,6.0,16.0,42,0.00,,,0.05,414.000000,,2013-03-17 22:42:00,
2013-03-17 16:52:00,39.0,18.0,-100.00,NNE,17,6.0,16.0,42,0.00,,,0.05,414.000000,,2013-03-17 22:52:00,
2013-03-17 17:01:00,38.0,17.0,-100.00,ENE,78,4.0,13.0,42,0.00,,,0.05,350.000000,,2013-03-17 23:01:00,
2013-03-17 17:22:00,38.0,17.0,-100.00,ENE,78,4.0,13.0,42,0.00,,,0.05,350.000000,,2013-03-17 23:22:00,
2013-03-17 17:33:00,38.0,17.0,-100.00,ENE,78,4.0,13.0,42,0.00,,,0.05,350.000000,,2013-03-17 23:33:00,
2013-03-17 17:43:00,38.0,17.0,-100.00,ENE,78,4.0,13.0,42,0.00,,,0.05,350.000000,,2013-03-17 23:43:00,
2013-03-17 17:52:00,38.0,17.0,-100.00,ENE,78,4.0,13.0,42,0.00,,,0.05,350.000000,,2013-03-17 23:52:00,
2013-03-17 18:01:00,35.0,17.0,-100.00,SE,131,5.0,13.0,48,0.01,,,0.06,154.000000,,2013-03-18 00:01:00,
2013-03-17 18:33:00,35.0,17.0,-100.00,SE,131,5.0,13.0,48,0.01,,,0.06,154.000000,,2013-03-18 00:33:00,
2013-03-17 18:42:00,35.0,17.0,-100.00,SE,131,5.0,13.0,48,0.01,,,0.06,154.000000,,2013-03-18 00:42:00,
2013-03-17 18:52:00,35.0,17.0,-100.00,SE,131,5.0,13.0,48,0.01,,,0.06,154.000000,,2013-03-18 00:52:00,
2013-03-17 19:01:00,34.0,20.0,-100.00,SSE,147,4.0,10.0,55,0.00,,,0.06,69.000000,,2013-03-18 01:01:00,
2013-03-17 19:33:00,34.0,20.0,-100.00,SSE,147,4.0,10.0,55,0.00,,,0.06,69.000000,,2013-03-18 01:33:00,
2013-03-17 19:42:00,34.0,20.0,-100.00,SSE,147,4.0,10.0,55,0.00,,,0.06,69.000000,,2013-03-18 01:42:00,
2013-03-17 19:52:00,34.0,20.0,-100.00,SSE,147,4.0,10.0,55,0.00,,,0.06,69.000000,,2013-03-18 01:52:00,
2013-03-17 20:01:00,32.0,21.0,-100.00,East,93,3.0,11.0,63,0.00,,,0.06,10.000000,,2013-03-18 02:01:00,
2013-03-17 20:22:00,32.0,21.0,-100.00,East,93,3.0,11.0,63,0.00,,,0.06,10.000000,,2013-03-18 02:22:00,
2013-03-17 20:32:00,32.0,21.0,-100.00,East,93,3.0,11.0,63,0.00,,,0.06,10.000000,,2013-03-18 02:32:00,
2013-03-17 20:42:00,32.0,21.0,-100.00,East,93,3.0,11.0,63,0.00,,,0.06,10.000000,,2013-03-18 02:42:00,
2013-03-17 20:52:00,32.0,21.0,-100.00,East,93,3.0,11.0,63,0.00,,,0.06,10.000000,,2013-03-18 02:52:00,
2013-03-17 21:01:00,30.0,21.0,-100.00,SE,131,3.0,8.0,69,0.00,,,0.06,1.000000,,2013-03-18 03:01:00,
2013-03-17 21:33:00,30.0,21.0,-100.00,SE,131,3.0,8.0,69,0.00,,,0.06,1.000000,,2013-03-18 03:33:00,
2013-03-17 21:42:00,30.0,21.0,-100.00,SE,131,3.0,8.0,69,0.00,,,0.06,1.000000,,2013-03-18 03:42:00,
2013-03-17 21:53:00,30.0,21.0,-100.00,SE,131,3.0,8.0,69,0.00,,,0.06,1.000000,,2013-03-18 03:53:00,
2013-03-17 22:01:00,29.0,20.0,-100.00,SSE,163,3.0,9.0,69,0.00,,,0.06,1.000000,,2013-03-18 04:01:00,
2013-03-17 22:23:00,29.0,20.0,-100.00,SSE,163,3.0,9.0,69,0.00,,,0.06,1.000000,,2013-03-18 04:23:00,
2013-03-17 22:33:00,29.0,20.0,-100.00,SSE,163,3.0,9.0,69,0.00,,,0.06,1.000000,,2013-03-18 04:33:00,
2013-03-17 22:42:00,29.0,20.0,-100.00,SSE,163,3.0,9.0,69,0.00,,,0.06,1.000000,,2013-03-18 04:42:00,
2013-03-17 22:52:00,29.0,20.0,-100.00,SSE,163,3.0,9.0,69,0.00,,,0.06,1.000000,,2013-03-18 04:52:00,
2013-03-17 23:01:00,28.0,24.0,-100.00,South,176,5.0,11.0,85,0.00,,,0.06,1.000000,,2013-03-18 05:01:00,
2013-03-17 23:32:00,28.0,24.0,-100.00,South,176,5.0,11.0,85,0.00,,,0.06,1.000000,,2013-03-18 05:32:00,
2013-03-17 23:43:00,28.0,24.0,-100.00,South,176,5.0,11.0,85,0.00,,,0.06,1.000000,,2013-03-18 05:43:00,
2013-03-17 23:52:00,28.0,24.0,-100.00,South,176,5.0,11.0,85,0.00,,,0.06,1.000000,,2013-03-18 05:52:00,